< < Back
Terminal Aerodrome Forecast


Current Version              Previous Versions:   1  2  3  4  5  6  7  8  9  

Terminal Aerodrome Forecast

769
FTUS42 KTAE 202300
TAFVLD
TAF
KVLD 202332Z 2100/2124 03005KT P6SM OVC050
     FM210600 04005KT P6SM OVC008
     FM211000 05006KT 3SM BR OVC004
     FM211400 07006KT 5SM -RA OVC010
     FM211800 08006KT 6SM -RA OVC020=



Latest METAR

164
SAUS70 KWBC 211000 RRL
MTRVLD
METAR KVLD 210953Z AUTO 05006KT 9SM OVC005 12/12 A3010 RMK AO2 RAE42
SLP199 P0001 T01220117


USA.gov is the U.S. government's official web portal to all federal, state and local government web resources and services.